Time;durP1;ratioP1;P1;durP2;ratioP2;P2;SDS_P1;SDS_P2;PMS_P1;PMS_P2;Temp;Humidity;BMP_temperature;BMP_pressure;BME280_temperature;BME280_humidity;BME280_pressure;Samples;Min_cycle;Max_cycle;Signal;HPM_P1;HPM_P2
2024/04/06 00:00:48;;;;;;;11.80;5.10;;;15.50;92.50;;;;;;5023077;28;20278;-58
2024/04/06 00:03:15;;;;;;;10.43;6.20;;;15.50;92.50;;;;;;5024593;28;20218;-58
2024/04/06 00:05:41;;;;;;;12.57;6.67;;;15.50;92.50;;;;;;5015501;28;20269;-58
2024/04/06 00:08:09;;;;;;;13.30;6.90;;;15.40;92.50;;;;;;5019071;28;20213;-58
2024/04/06 00:10:35;;;;;;;11.37;7.30;;;15.40;92.50;;;;;;5013470;28;20212;-58
2024/04/06 00:13:02;;;;;;;12.17;7.13;;;15.40;92.60;;;;;;5024902;28;20217;-58
2024/04/06 00:15:30;;;;;;;10.20;6.70;;;15.40;92.70;;;;;;5005712;28;20256;-58
2024/04/06 00:17:57;;;;;;;13.27;7.33;;;15.30;92.80;;;;;;5008204;28;20209;-57
2024/04/06 00:20:28;;;;;;;12.10;7.07;;;15.30;92.80;;;;;;5018624;28;20668;-58
2024/04/06 00:22:55;;;;;;;13.40;7.33;;;15.20;92.90;;;;;;5021551;28;20277;-58
2024/04/06 00:25:24;;;;;;;10.83;6.73;;;15.20;93.00;;;;;;5034323;28;20295;-58
2024/04/06 00:27:50;;;;;;;12.83;7.33;;;15.10;93.10;;;;;;5032605;28;20200;-58
2024/04/06 00:30:16;;;;;;;16.47;9.13;;;15.10;93.20;;;;;;5033774;28;20195;-58
2024/04/06 00:32:42;;;;;;;12.83;7.50;;;15.00;93.30;;;;;;5034739;28;20199;-58
2024/04/06 00:35:09;;;;;;;13.53;8.20;;;15.00;93.40;;;;;;5019989;28;20199;-58
2024/04/06 00:37:35;;;;;;;18.47;8.30;;;15.00;93.50;;;;;;5022689;28;20215;-58
2024/04/06 00:40:01;;;;;;;13.90;8.20;;;14.90;93.50;;;;;;5025703;28;20210;-58
2024/04/06 00:42:27;;;;;;;14.17;8.07;;;14.90;93.50;;;;;;5021646;28;20211;-58
2024/04/06 00:44:54;;;;;;;11.93;8.27;;;14.80;93.60;;;;;;5037154;28;20198;-58
2024/04/06 00:47:21;;;;;;;14.20;8.97;;;14.80;93.70;;;;;;5024011;28;20202;-58
2024/04/06 00:49:48;;;;;;;11.90;8.00;;;14.80;93.70;;;;;;5016556;28;20203;-58
2024/04/06 00:52:14;;;;;;;16.10;8.67;;;14.80;93.70;;;;;;5038509;28;20268;-58
2024/04/06 00:54:41;;;;;;;14.60;9.10;;;14.80;93.70;;;;;;5023637;28;20202;-58
2024/04/06 00:57:09;;;;;;;18.17;9.50;;;14.80;93.70;;;;;;5038626;28;20213;-58
2024/04/06 00:59:38;;;;;;;12.77;8.97;;;14.70;93.80;;;;;;5020099;28;20209;-58
2024/04/06 01:02:05;;;;;;;15.63;9.67;;;14.70;93.90;;;;;;5002649;28;20238;-58
2024/04/06 01:04:32;;;;;;;16.03;10.03;;;14.60;93.90;;;;;;5031003;28;20210;-58
2024/04/06 01:06:59;;;;;;;13.90;9.27;;;14.60;94.00;;;;;;5020675;28;20238;-58
2024/04/06 01:09:27;;;;;;;17.83;9.20;;;14.60;94.10;;;;;;5020528;28;20196;-58
2024/04/06 01:11:54;;;;;;;19.97;9.87;;;14.60;94.10;;;;;;5013732;28;20222;-58
2024/04/06 01:14:22;;;;;;;14.83;10.37;;;14.60;94.10;;;;;;5011496;28;20269;-58
2024/04/06 01:16:48;;;;;;;15.87;9.97;;;14.60;94.10;;;;;;5022027;28;20219;-57
2024/04/06 01:19:16;;;;;;;17.93;10.73;;;14.60;94.20;;;;;;5023168;28;20216;-58
2024/04/06 01:21:44;;;;;;;18.57;10.80;;;14.60;94.20;;;;;;5005155;28;20672;-58
2024/04/06 01:24:30;;;;;;;18.93;10.63;;;14.70;94.30;;;;;;5023376;28;20687;-58
2024/04/06 01:27:00;;;;;;;16.73;10.17;;;14.60;94.30;;;;;;5039337;28;20218;-58
2024/04/06 01:29:29;;;;;;;18.37;11.13;;;14.60;94.30;;;;;;5001471;28;20769;-58
2024/04/06 01:31:56;;;;;;;17.07;11.17;;;14.60;94.40;;;;;;5019421;28;20195;-58
2024/04/06 01:34:24;;;;;;;13.47;10.63;;;14.60;94.50;;;;;;4994110;28;20778;-58
2024/04/06 01:36:51;;;;;;;17.03;11.57;;;14.60;94.80;;;;;;5006807;28;20781;-58
2024/04/06 01:39:17;;;;;;;18.17;10.73;;;14.50;94.60;;;;;;5023576;28;20269;-57
2024/04/06 01:41:48;;;;;;;14.20;11.20;;;14.50;94.60;;;;;;5043625;28;20214;-57
2024/04/06 01:44:15;;;;;;;18.03;11.63;;;14.50;94.70;;;;;;5037110;28;20214;-57
2024/04/06 01:46:41;;;;;;;18.07;11.57;;;14.50;94.70;;;;;;5033813;28;20216;-57
2024/04/06 01:49:08;;;;;;;15.07;10.60;;;14.50;94.80;;;;;;5035215;28;20634;-57
2024/04/06 01:51:35;;;;;;;21.63;10.83;;;14.50;94.80;;;;;;5036377;28;20212;-57
2024/04/06 01:54:02;;;;;;;17.27;11.00;;;14.50;94.70;;;;;;5043985;28;20214;-57
2024/04/06 01:56:29;;;;;;;19.63;11.10;;;14.50;94.70;;;;;;5001348;28;20734;-57
2024/04/06 01:58:55;;;;;;;16.47;10.30;;;14.50;94.70;;;;;;5019411;28;20210;-58
2024/04/06 02:01:21;;;;;;;15.17;10.77;;;14.50;94.70;;;;;;5025025;28;20568;-57
2024/04/06 02:03:48;;;;;;;12.03;10.73;;;14.40;94.70;;;;;;5023976;28;20639;-57
2024/04/06 02:06:16;;;;;;;12.23;9.73;;;14.40;94.80;;;;;;5017679;28;20213;-57
2024/04/06 02:08:43;;;;;;;13.47;10.40;;;14.40;94.80;;;;;;5031649;28;20257;-57
2024/04/06 02:11:09;;;;;;;13.87;11.00;;;14.40;94.80;;;;;;5040714;28;20204;-57
2024/04/06 02:13:35;;;;;;;16.27;11.60;;;14.30;94.80;;;;;;5032737;28;20193;-57
2024/04/06 02:16:02;;;;;;;17.97;11.33;;;14.40;94.80;;;;;;5026917;28;20655;-57
2024/04/06 02:18:29;;;;;;;17.53;11.37;;;14.40;94.90;;;;;;5042057;28;20246;-57
2024/04/06 02:20:56;;;;;;;12.67;10.80;;;14.30;94.80;;;;;;5020417;28;20260;-57
2024/04/06 02:23:23;;;;;;;17.50;10.27;;;14.30;94.80;;;;;;5005253;28;20214;-57
2024/04/06 02:25:49;;;;;;;13.47;11.50;;;14.30;94.90;;;;;;5038354;28;20261;-58
2024/04/06 02:28:17;;;;;;;15.40;11.10;;;14.30;94.80;;;;;;5035721;28;20645;-58
2024/04/06 02:30:46;;;;;;;15.47;11.73;;;14.30;94.80;;;;;;5026678;28;20210;-58
2024/04/06 02:33:13;;;;;;;17.37;12.30;;;14.20;94.80;;;;;;5022341;28;20201;-57
2024/04/06 02:35:41;;;;;;;24.57;13.63;;;14.20;94.80;;;;;;5022311;28;20205;-58
2024/04/06 02:38:07;;;;;;;15.43;12.07;;;14.20;94.80;;;;;;5006869;28;20204;-58
2024/04/06 02:40:33;;;;;;;15.00;12.87;;;14.20;94.90;;;;;;5018116;28;20239;-58
2024/04/06 02:43:01;;;;;;;17.87;12.20;;;14.20;95.00;;;;;;5037561;28;20278;-57
2024/04/06 02:45:28;;;;;;;15.40;11.40;;;14.20;95.10;;;;;;5020001;28;20693;-58
2024/04/06 02:47:55;;;;;;;14.17;11.93;;;14.20;95.10;;;;;;5013058;28;20197;-57
2024/04/06 02:50:22;;;;;;;16.03;11.47;;;14.20;95.10;;;;;;5040031;28;20214;-58
2024/04/06 02:52:49;;;;;;;17.40;13.00;;;14.20;95.20;;;;;;5006041;28;20587;-58
2024/04/06 02:55:16;;;;;;;19.03;13.97;;;14.20;95.10;;;;;;5014170;28;20211;-57
2024/04/06 02:57:43;;;;;;;16.20;12.00;;;14.20;95.20;;;;;;5035594;28;20204;-58
2024/04/06 03:00:10;;;;;;;17.23;11.37;;;14.20;95.20;;;;;;5034603;28;20238;-58
2024/04/06 03:02:37;;;;;;;20.10;13.00;;;14.20;95.20;;;;;;5012605;28;20204;-58
2024/04/06 03:05:04;;;;;;;13.07;10.50;;;14.20;95.20;;;;;;5038475;28;20202;-58
2024/04/06 03:07:31;;;;;;;17.23;11.17;;;14.20;95.20;;;;;;5036595;28;20202;-58
2024/04/06 03:09:58;;;;;;;18.43;13.23;;;14.20;95.10;;;;;;5021167;28;20209;-58
2024/04/06 03:12:25;;;;;;;21.47;14.00;;;14.20;95.10;;;;;;5037511;28;20201;-58
2024/04/06 03:14:52;;;;;;;16.27;12.97;;;14.20;95.10;;;;;;5022281;28;20205;-58
2024/04/06 03:17:18;;;;;;;17.83;12.73;;;14.10;95.10;;;;;;5034924;28;20201;-58
2024/04/06 03:19:44;;;;;;;20.43;12.90;;;14.10;95.10;;;;;;5037000;28;20232;-58
2024/04/06 03:22:12;;;;;;;19.83;13.77;;;14.10;95.10;;;;;;5027405;28;20229;-58
2024/04/06 03:24:39;;;;;;;19.70;13.87;;;14.10;95.10;;;;;;4986541;28;20203;-58
2024/04/06 03:27:05;;;;;;;18.57;14.23;;;14.10;95.10;;;;;;5039148;28;20217;-58
2024/04/06 03:29:32;;;;;;;20.83;14.80;;;14.10;95.20;;;;;;5038594;28;20243;-58
2024/04/06 03:31:58;;;;;;;22.13;15.60;;;14.00;95.20;;;;;;5033390;28;20223;-58
2024/04/06 03:34:24;;;;;;;20.13;14.70;;;14.00;95.30;;;;;;5034674;28;20224;-58
2024/04/06 03:36:50;;;;;;;20.77;14.30;;;14.00;95.30;;;;;;5031072;28;20195;-58
2024/04/06 03:39:16;;;;;;;23.40;15.93;;;14.00;95.40;;;;;;5035777;28;20192;-58
2024/04/06 03:41:42;;;;;;;18.87;14.70;;;13.90;95.40;;;;;;5033635;28;20793;-58
2024/04/06 03:44:08;;;;;;;18.03;15.23;;;13.90;95.40;;;;;;5035545;28;20347;-58
2024/04/06 03:46:34;;;;;;;24.70;16.57;;;13.90;95.50;;;;;;5033068;28;20228;-58
2024/04/06 03:49:00;;;;;;;23.67;16.33;;;13.90;95.50;;;;;;5037411;28;20269;-58
2024/04/06 03:51:26;;;;;;;23.30;16.60;;;13.90;95.60;;;;;;5029955;28;20192;-58
2024/04/06 03:53:52;;;;;;;25.83;16.90;;;13.90;95.60;;;;;;5034774;28;20246;-58
2024/04/06 03:56:18;;;;;;;25.30;15.17;;;13.90;95.60;;;;;;5031572;28;20226;-58
2024/04/06 03:58:44;;;;;;;19.13;15.40;;;13.80;95.60;;;;;;5025977;28;20244;-58
2024/04/06 04:01:10;;;;;;;21.50;15.63;;;13.80;95.70;;;;;;5033871;28;20660;-58
2024/04/06 04:03:38;;;;;;;21.23;15.17;;;13.80;95.70;;;;;;5030566;28;20218;-58
2024/04/06 04:06:04;;;;;;;22.23;14.53;;;13.80;95.70;;;;;;5041962;28;20308;-58
2024/04/06 04:08:31;;;;;;;25.07;15.57;;;13.80;95.70;;;;;;5037246;28;20233;-58
2024/04/06 04:10:57;;;;;;;25.63;15.83;;;13.80;95.60;;;;;;5034127;28;20209;-58
2024/04/06 04:13:24;;;;;;;19.13;14.27;;;13.70;95.60;;;;;;5033014;28;20196;-58
2024/04/06 04:15:50;;;;;;;18.63;15.03;;;13.70;95.60;;;;;;5032741;28;20290;-58
2024/04/06 04:18:16;;;;;;;22.50;15.27;;;13.70;95.60;;;;;;5029885;28;20230;-58
2024/04/06 04:20:42;;;;;;;20.87;13.70;;;13.60;95.70;;;;;;5033916;28;20257;-58
2024/04/06 04:23:10;;;;;;;17.67;13.13;;;13.60;95.70;;;;;;5033438;28;20202;-58
2024/04/06 04:25:36;;;;;;;18.77;13.07;;;13.60;95.70;;;;;;5037162;28;20244;-58
2024/04/06 04:28:02;;;;;;;19.63;14.53;;;13.60;95.70;;;;;;5036951;28;20195;-58
2024/04/06 04:30:28;;;;;;;15.93;13.03;;;13.60;95.70;;;;;;5028233;28;20249;-58
2024/04/06 04:32:55;;;;;;;17.73;12.47;;;13.60;95.70;;;;;;5035029;28;20218;-58
2024/04/06 04:35:21;;;;;;;21.57;12.97;;;13.60;95.70;;;;;;5032534;28;20656;-58
2024/04/06 04:37:47;;;;;;;18.23;12.73;;;13.60;95.60;;;;;;5036675;28;20213;-58
2024/04/06 04:40:13;;;;;;;20.43;13.07;;;13.50;95.50;;;;;;5030634;28;20714;-58
2024/04/06 04:42:39;;;;;;;17.60;12.37;;;13.60;95.50;;;;;;5032607;28;20287;-58
2024/04/06 04:45:15;;;;;;;13.87;11.37;;;13.50;95.50;;;;;;5039252;28;20289;-58
2024/04/06 04:47:41;;;;;;;16.20;13.00;;;13.50;95.50;;;;;;5036996;28;20190;-58
2024/04/06 04:50:11;;;;;;;17.23;12.50;;;13.50;95.40;;;;;;5041188;28;20195;-58
2024/04/06 04:52:38;;;;;;;22.20;11.90;;;13.50;95.30;;;;;;5031449;28;20587;-58
2024/04/06 04:55:04;;;;;;;17.57;11.50;;;13.50;95.30;;;;;;5034494;28;20567;-58
2024/04/06 04:57:31;;;;;;;19.60;11.93;;;13.40;95.30;;;;;;5036481;28;20231;-58
2024/04/06 04:59:57;;;;;;;12.43;11.00;;;13.40;95.30;;;;;;5038963;28;20206;-58
2024/04/06 05:02:24;;;;;;;17.83;11.30;;;13.40;95.40;;;;;;5035302;28;20191;-58
2024/04/06 05:04:51;;;;;;;16.07;11.40;;;13.40;95.40;;;;;;5033926;28;20282;-58
2024/04/06 05:07:21;;;;;;;11.03;9.90;;;13.40;95.40;;;;;;5040878;28;20272;-58
2024/04/06 05:09:48;;;;;;;17.90;11.37;;;13.40;95.40;;;;;;5042458;28;20230;-58
2024/04/06 05:12:14;;;;;;;17.67;10.23;;;13.50;95.40;;;;;;5039741;28;20208;-58
2024/04/06 05:14:40;;;;;;;14.67;10.17;;;13.50;95.40;;;;;;5036612;28;20234;-58
2024/04/06 05:17:07;;;;;;;15.93;10.40;;;13.50;95.40;;;;;;5034977;28;20607;-57
2024/04/06 05:19:34;;;;;;;12.33;9.70;;;13.60;95.40;;;;;;5035162;28;20300;-59
2024/04/06 05:22:01;;;;;;;11.03;8.60;;;13.60;95.40;;;;;;5037688;28;20608;-58
2024/04/06 05:24:27;;;;;;;12.77;9.40;;;13.60;95.40;;;;;;5031172;28;20699;-61
2024/04/06 05:26:53;;;;;;;19.03;8.50;;;13.70;95.40;;;;;;5041328;28;20696;-58
2024/04/06 05:29:19;;;;;;;13.47;9.07;;;13.80;95.40;;;;;;5038591;28;20206;-58
2024/04/06 05:31:46;;;;;;;12.67;8.90;;;13.80;95.40;;;;;;5034252;28;20223;-58
2024/04/06 05:34:12;;;;;;;12.27;8.27;;;14.00;95.40;;;;;;5037195;28;20274;-58
2024/04/06 05:36:39;;;;;;;10.90;7.87;;;14.10;95.30;;;;;;5037831;28;20245;-58
2024/04/06 05:39:05;;;;;;;14.00;8.23;;;14.30;95.10;;;;;;5033249;28;20227;-58
2024/04/06 05:41:31;;;;;;;14.40;7.77;;;14.40;94.90;;;;;;5033376;28;20649;-58
2024/04/06 05:43:57;;;;;;;13.67;7.73;;;14.50;94.70;;;;;;5039751;28;20246;-58
2024/04/06 05:46:23;;;;;;;13.57;7.17;;;14.50;94.40;;;;;;5038700;28;20312;-56
2024/04/06 05:48:49;;;;;;;10.73;7.03;;;14.60;94.30;;;;;;5039366;28;20676;-57
2024/04/06 05:51:15;;;;;;;11.40;7.30;;;14.60;94.20;;;;;;5034460;28;20191;-57
2024/04/06 05:53:41;;;;;;;12.90;6.60;;;14.70;94.20;;;;;;5042615;28;20946;-59
2024/04/06 05:56:08;;;;;;;10.87;6.53;;;14.70;94.20;;;;;;5039519;28;20333;-57
2024/04/06 05:58:35;;;;;;;11.77;6.97;;;14.80;94.20;;;;;;5033259;28;20261;-58
2024/04/06 06:01:01;;;;;;;10.07;6.57;;;14.90;94.20;;;;;;5034554;28;20235;-58
2024/04/06 06:03:27;;;;;;;9.77;6.40;;;15.00;94.00;;;;;;5040103;28;20204;-58
2024/04/06 06:05:53;;;;;;;11.00;7.20;;;15.20;93.70;;;;;;5033503;28;20234;-58
2024/04/06 06:08:19;;;;;;;12.60;6.73;;;15.30;93.50;;;;;;5036014;28;20664;-58
2024/04/06 06:10:46;;;;;;;11.60;6.93;;;15.50;93.40;;;;;;5033831;28;20216;-58
2024/04/06 06:13:12;;;;;;;10.30;6.60;;;15.70;93.10;;;;;;5032333;28;20516;-58
2024/04/06 06:15:38;;;;;;;9.07;6.60;;;16.10;92.80;;;;;;5037780;28;20199;-58
2024/04/06 06:18:04;;;;;;;16.10;7.23;;;16.60;92.20;;;;;;5036353;28;20825;-58
2024/04/06 06:20:30;;;;;;;11.70;6.47;;;17.20;91.40;;;;;;5029015;28;20250;-58
2024/04/06 06:22:56;;;;;;;9.90;5.80;;;17.60;90.80;;;;;;5054554;28;20288;-58
2024/04/06 06:25:24;;;;;;;13.50;6.30;;;17.90;90.20;;;;;;5034851;28;20199;-58
2024/04/06 06:27:50;;;;;;;8.77;5.33;;;18.00;89.70;;;;;;5035983;28;20622;-58
2024/04/06 06:30:16;;;;;;;8.37;5.90;;;18.20;89.40;;;;;;5036190;28;20224;-58
2024/04/06 06:32:43;;;;;;;8.53;6.23;;;18.20;89.20;;;;;;5029613;28;20604;-58
2024/04/06 06:35:11;;;;;;;14.60;5.90;;;18.20;89.00;;;;;;5032917;28;20621;-58
2024/04/06 06:37:37;;;;;;;15.33;5.40;;;18.20;89.20;;;;;;5038639;28;20530;-58
2024/04/06 06:40:03;;;;;;;8.17;4.93;;;18.10;89.50;;;;;;5036085;28;20193;-58
2024/04/06 06:42:30;;;;;;;6.33;5.73;;;18.10;89.70;;;;;;5024949;28;20225;-58
2024/04/06 06:44:56;;;;;;;8.73;5.70;;;18.20;90.00;;;;;;5036082;28;20642;-58
2024/04/06 06:47:25;;;;;;;9.50;5.43;;;18.20;89.80;;;;;;5034593;28;20715;-58
2024/04/06 06:49:51;;;;;;;10.23;6.20;;;18.20;89.90;;;;;;5021805;28;20206;-58
2024/04/06 06:52:17;;;;;;;9.93;5.60;;;18.30;90.00;;;;;;5035646;28;20220;-58
2024/04/06 06:54:43;;;;;;;11.23;5.17;;;18.40;90.00;;;;;;5031328;28;20210;-58
2024/04/06 06:57:09;;;;;;;8.83;6.00;;;18.50;89.80;;;;;;5037340;28;20234;-56
2024/04/06 06:59:35;;;;;;;8.53;5.87;;;18.60;89.60;;;;;;5043173;28;20265;-57
2024/04/06 07:02:01;;;;;;;11.63;5.33;;;18.60;89.60;;;;;;5042692;28;20296;-57
2024/04/06 07:04:27;;;;;;;8.00;5.27;;;18.70;89.20;;;;;;5036787;28;20210;-58
2024/04/06 07:06:53;;;;;;;8.83;5.40;;;18.80;88.80;;;;;;5037064;28;20280;-57
2024/04/06 07:09:20;;;;;;;13.60;5.13;;;18.90;88.20;;;;;;5032412;28;20705;-57
2024/04/06 07:11:46;;;;;;;9.73;4.53;;;19.00;87.70;;;;;;5037205;28;20222;-57
2024/04/06 07:14:12;;;;;;;10.70;4.90;;;19.10;87.30;;;;;;5030439;28;20286;-58
2024/04/06 07:16:38;;;;;;;8.13;5.17;;;19.10;86.90;;;;;;5028590;28;20257;-57
2024/04/06 07:19:06;;;;;;;7.03;4.23;;;19.20;86.50;;;;;;5029805;28;20273;-58
2024/04/06 07:21:33;;;;;;;6.60;4.80;;;19.30;86.20;;;;;;5039458;28;20234;-58
2024/04/06 07:23:59;;;;;;;7.87;4.67;;;19.40;86.00;;;;;;5033146;28;20326;-58
2024/04/06 07:26:25;;;;;;;9.13;4.27;;;19.50;85.70;;;;;;5036355;28;20219;-58
2024/04/06 07:28:54;;;;;;;5.87;4.03;;;19.50;85.40;;;;;;5035762;28;20269;-59
2024/04/06 07:31:20;;;;;;;7.80;3.83;;;19.60;85.10;;;;;;5034134;28;20217;-59
2024/04/06 07:33:49;;;;;;;7.43;3.63;;;19.70;84.80;;;;;;5034312;28;20553;-58
2024/04/06 07:36:15;;;;;;;7.20;4.40;;;19.80;84.40;;;;;;5032785;28;20516;-58
2024/04/06 07:38:41;;;;;;;9.30;4.17;;;20.00;84.10;;;;;;5030585;28;20218;-58
2024/04/06 07:41:08;;;;;;;10.13;4.00;;;20.10;83.10;;;;;;5042882;28;20217;-59
2024/04/06 07:43:35;;;;;;;8.53;3.93;;;20.10;82.40;;;;;;5033803;28;20861;-58
2024/04/06 07:46:01;;;;;;;11.73;4.00;;;20.20;82.40;;;;;;5037172;28;20589;-58
2024/04/06 07:48:27;;;;;;;8.40;3.93;;;20.30;82.40;;;;;;5035753;28;20253;-58
2024/04/06 07:50:53;;;;;;;5.53;3.83;;;20.40;82.00;;;;;;5030462;28;20195;-58
2024/04/06 07:53:19;;;;;;;9.90;4.10;;;20.50;81.60;;;;;;5035092;28;20759;-58
2024/04/06 07:55:46;;;;;;;7.23;3.83;;;20.60;81.50;;;;;;5035417;28;20217;-58
2024/04/06 07:58:12;;;;;;;11.93;3.97;;;20.60;81.20;;;;;;5034108;28;20235;-58
2024/04/06 08:00:38;;;;;;;8.43;4.20;;;20.60;81.20;;;;;;5039440;28;20262;-58
2024/04/06 08:03:05;;;;;;;8.10;4.00;;;20.60;80.50;;;;;;5038631;28;20248;-58
2024/04/06 08:05:31;;;;;;;8.70;3.83;;;20.60;79.70;;;;;;5033323;28;20199;-58
2024/04/06 08:07:57;;;;;;;5.53;3.53;;;20.50;79.80;;;;;;5037993;28;20683;-58
2024/04/06 08:10:23;;;;;;;5.63;4.53;;;20.50;80.00;;;;;;5029872;28;20244;-58
2024/04/06 08:12:53;;;;;;;9.10;4.47;;;20.50;78.90;;;;;;5030330;28;20225;-58
2024/04/06 08:15:19;;;;;;;8.37;4.27;;;20.50;79.10;;;;;;5035969;28;20192;-58
2024/04/06 08:17:50;;;;;;;8.50;4.90;;;20.60;78.10;;;;;;5032680;28;20203;-58
2024/04/06 08:20:19;;;;;;;6.30;4.87;;;20.60;78.50;;;;;;5038714;28;20202;-58
2024/04/06 08:22:45;;;;;;;8.77;4.67;;;20.50;78.80;;;;;;5037530;28;20215;-58
2024/04/06 08:25:12;;;;;;;7.07;3.40;;;20.50;78.20;;;;;;5034890;28;20206;-58
2024/04/06 08:27:39;;;;;;;5.53;3.33;;;20.50;78.90;;;;;;5030795;28;20234;-57
2024/04/06 08:30:14;;;;;;;9.97;3.90;;;20.60;77.90;;;;;;5041114;28;20524;-57
2024/04/06 08:32:40;;;;;;;10.93;4.03;;;20.60;77.50;;;;;;5029415;28;20252;-58
2024/04/06 08:35:12;;;;;;;7.00;3.60;;;20.70;77.50;;;;;;5027479;28;20223;-58
2024/04/06 08:37:41;;;;;;;7.30;2.77;;;20.80;77.40;;;;;;5038564;28;20252;-58
2024/04/06 08:40:10;;;;;;;8.63;4.40;;;20.80;76.60;;;;;;5037414;28;20586;-58
2024/04/06 08:42:45;;;;;;;6.53;3.23;;;20.90;75.70;;;;;;5035744;28;20195;-58
2024/04/06 08:45:12;;;;;;;7.63;4.37;;;20.90;75.40;;;;;;5036878;28;20300;-58
2024/04/06 08:47:40;;;;;;;5.80;3.50;;;21.00;75.30;;;;;;5037125;28;20254;-58
2024/04/06 08:50:10;;;;;;;6.50;3.90;;;21.10;75.20;;;;;;5034932;28;20192;-57
2024/04/06 08:52:37;;;;;;;7.17;3.50;;;21.20;75.40;;;;;;5033265;28;20248;-58
2024/04/06 08:55:04;;;;;;;9.00;3.30;;;21.30;75.50;;;;;;5029438;28;20207;-58
2024/04/06 08:57:35;;;;;;;6.97;2.80;;;21.40;75.30;;;;;;5034493;28;20632;-58
2024/04/06 09:00:12;;;;;;;4.40;2.73;;;21.50;73.80;;;;;;5035408;28;20203;-58
2024/04/06 09:02:40;;;;;;;4.87;2.70;;;21.60;73.50;;;;;;5039132;28;20206;-58
2024/04/06 09:05:07;;;;;;;6.60;2.60;;;21.80;73.20;;;;;;5031368;28;20190;-58
2024/04/06 09:07:33;;;;;;;3.97;2.40;;;21.90;73.10;;;;;;5030884;28;20243;-58
2024/04/06 09:09:59;;;;;;;6.63;2.53;;;22.00;71.80;;;;;;5030566;28;20269;-58
2024/04/06 09:12:25;;;;;;;7.20;2.53;;;21.90;72.00;;;;;;5034942;28;20553;-58
2024/04/06 09:14:52;;;;;;;6.13;2.27;;;21.90;72.00;;;;;;5034092;28;20195;-58
2024/04/06 09:17:21;;;;;;;5.53;2.87;;;21.80;72.30;;;;;;5027400;28;20219;-58
2024/04/06 09:19:47;;;;;;;5.33;2.20;;;21.90;72.80;;;;;;5036886;28;20653;-58
2024/04/06 09:22:13;;;;;;;3.77;1.80;;;22.00;72.10;;;;;;5035468;28;20632;-58
2024/04/06 09:24:39;;;;;;;5.10;1.90;;;22.00;71.50;;;;;;5036233;28;20252;-58
2024/04/06 09:27:11;;;;;;;4.67;2.23;;;21.90;71.40;;;;;;5032105;28;20211;-58
2024/04/06 09:29:37;;;;;;;6.23;2.53;;;21.90;70.40;;;;;;5029684;28;20199;-57
2024/04/06 09:32:05;;;;;;;6.17;2.27;;;21.90;71.20;;;;;;5031408;28;20229;-57
2024/04/06 09:34:31;;;;;;;4.57;2.10;;;21.90;71.50;;;;;;5042607;28;20215;-57
2024/04/06 09:37:02;;;;;;;2.87;2.00;;;21.90;72.20;;;;;;5036891;28;20207;-57
2024/04/06 09:39:33;;;;;;;5.33;1.97;;;22.00;72.40;;;;;;5041957;28;20198;-58
2024/04/06 09:42:00;;;;;;;6.20;2.53;;;22.10;71.70;;;;;;5036921;28;20631;-58
2024/04/06 09:44:31;;;;;;;5.10;2.73;;;22.00;70.90;;;;;;5031460;28;20207;-58
2024/04/06 09:46:58;;;;;;;4.17;1.90;;;21.90;71.10;;;;;;5038107;28;20243;-58
2024/04/06 09:49:24;;;;;;;10.07;2.90;;;21.80;71.00;;;;;;5035930;28;20646;-58
2024/04/06 09:51:53;;;;;;;8.33;4.40;;;21.70;72.10;;;;;;5023869;28;20203;-58
2024/04/06 09:54:20;;;;;;;13.37;6.53;;;21.70;72.00;;;;;;5034624;28;20198;-58
2024/04/06 09:56:49;;;;;;;13.33;7.50;;;21.60;72.10;;;;;;5024344;28;20637;-58
2024/04/06 09:59:23;;;;;;;13.00;9.50;;;21.60;71.30;;;;;;5040420;28;20225;-58
2024/04/06 10:01:52;;;;;;;12.47;6.87;;;21.60;71.10;;;;;;5037408;28;20234;-58
2024/04/06 10:04:33;;;;;;;8.13;4.73;;;21.60;70.90;;;;;;5034486;28;20211;-58
2024/04/06 10:07:04;;;;;;;4.47;3.20;;;21.70;71.80;;;;;;5033926;28;20626;-58
2024/04/06 10:09:37;;;;;;;12.57;3.00;;;21.90;70.90;;;;;;5055356;28;20694;-58
2024/04/06 10:12:06;;;;;;;2.90;2.00;;;22.00;71.00;;;;;;5027850;28;20202;-58
2024/04/06 10:14:43;;;;;;;4.87;1.60;;;22.10;71.40;;;;;;5028081;28;20200;-58
2024/04/06 10:17:14;;;;;;;5.63;2.10;;;22.20;69.30;;;;;;5036034;28;20256;-58
2024/04/06 10:19:43;;;;;;;5.53;2.10;;;22.20;68.90;;;;;;5054477;28;20286;-58
2024/04/06 10:22:09;;;;;;;1.90;1.60;;;22.40;68.80;;;;;;5038319;28;20202;-58
2024/04/06 10:24:36;;;;;;;4.37;1.63;;;22.30;68.00;;;;;;5032801;28;20594;-58
2024/04/06 10:27:02;;;;;;;4.27;1.70;;;22.40;68.20;;;;;;5034678;28;20269;-58
2024/04/06 10:29:30;;;;;;;3.80;1.90;;;22.50;69.00;;;;;;5039455;28;20429;-58
2024/04/06 10:31:56;;;;;;;4.20;1.60;;;22.70;68.90;;;;;;5037789;28;20227;-58
2024/04/06 10:34:23;;;;;;;7.97;1.80;;;22.90;68.30;;;;;;5025498;28;20199;-57
2024/04/06 10:36:49;;;;;;;4.93;1.83;;;23.20;68.00;;;;;;5039609;28;20207;-58
2024/04/06 10:39:16;;;;;;;4.83;1.83;;;23.40;65.60;;;;;;5037308;28;20195;-58
2024/04/06 10:41:43;;;;;;;3.63;1.87;;;23.60;65.70;;;;;;5035564;28;20235;-58
2024/04/06 10:44:10;;;;;;;3.07;1.53;;;23.70;65.60;;;;;;5034721;28;20208;-58
2024/04/06 10:46:37;;;;;;;3.23;1.80;;;23.90;66.30;;;;;;5033577;28;20207;-58
2024/04/06 10:49:13;;;;;;;5.33;1.73;;;24.00;65.90;;;;;;5035740;28;20684;-58
2024/04/06 10:51:41;;;;;;;7.90;1.90;;;24.10;64.30;;;;;;5037379;28;20193;-58
2024/04/06 10:54:08;;;;;;;4.07;2.10;;;24.10;65.20;;;;;;5040784;28;20195;-58
2024/04/06 10:56:35;;;;;;;3.53;1.83;;;24.20;65.00;;;;;;5043070;28;20238;-58
2024/04/06 10:59:02;;;;;;;6.20;2.23;;;24.20;64.40;;;;;;5036242;28;20195;-58
2024/04/06 11:01:37;;;;;;;3.53;1.90;;;24.30;64.20;;;;;;5038596;28;20234;-58
2024/04/06 11:04:03;;;;;;;4.97;2.53;;;24.30;63.10;;;;;;5036330;28;20206;-58
2024/04/06 11:06:30;;;;;;;3.50;2.07;;;24.40;63.40;;;;;;5035857;28;20337;-58
2024/04/06 11:09:00;;;;;;;5.47;2.13;;;24.40;63.60;;;;;;5032222;28;20206;-58
2024/04/06 11:11:28;;;;;;;6.00;2.60;;;24.50;63.10;;;;;;5037258;28;20633;-58
2024/04/06 11:13:57;;;;;;;5.77;2.47;;;24.50;62.70;;;;;;5032863;28;20199;-58
2024/04/06 11:16:25;;;;;;;3.03;2.03;;;24.50;62.70;;;;;;5036699;28;20485;-58
2024/04/06 11:18:51;;;;;;;4.53;1.87;;;24.50;63.10;;;;;;5037998;28;20203;-58
2024/04/06 11:21:18;;;;;;;3.67;2.00;;;24.70;61.70;;;;;;5032699;28;20238;-58
2024/04/06 11:23:47;;;;;;;5.50;1.60;;;24.70;63.00;;;;;;5035293;28;20548;-59
2024/04/06 11:26:18;;;;;;;5.97;1.70;;;24.70;63.30;;;;;;5035851;28;20212;-58
2024/04/06 11:28:44;;;;;;;3.73;1.40;;;24.80;63.30;;;;;;5025092;28;20218;-58
2024/04/06 11:31:11;;;;;;;6.00;1.73;;;24.90;62.10;;;;;;5033229;28;20219;-58
2024/04/06 11:33:37;;;;;;;3.10;1.40;;;24.80;61.60;;;;;;5033425;28;20199;-58
2024/04/06 11:36:03;;;;;;;3.77;2.03;;;24.70;62.10;;;;;;5039289;28;20319;-58
2024/04/06 11:38:29;;;;;;;5.53;1.70;;;24.70;61.00;;;;;;5035740;28;20215;-58
2024/04/06 11:40:57;;;;;;;6.07;1.90;;;24.60;61.70;;;;;;5034091;28;20195;-58
2024/04/06 11:43:24;;;;;;;2.03;1.70;;;24.60;62.50;;;;;;5031354;28;20198;-58
2024/04/06 11:45:50;;;;;;;2.80;1.30;;;24.60;62.40;;;;;;5035521;28;20227;-58
2024/04/06 11:48:16;;;;;;;2.53;1.40;;;24.60;62.30;;;;;;5035370;28;20199;-58
2024/04/06 11:50:42;;;;;;;3.27;1.73;;;24.60;62.30;;;;;;5025568;28;20257;-58
2024/04/06 11:53:09;;;;;;;6.93;1.63;;;24.50;62.50;;;;;;5031315;28;20187;-58
2024/04/06 11:55:36;;;;;;;5.60;1.97;;;24.50;61.80;;;;;;5040337;28;20210;-58
2024/04/06 11:58:03;;;;;;;4.43;1.90;;;24.50;62.00;;;;;;5035306;28;20226;-58
2024/04/06 12:00:32;;;;;;;4.57;1.87;;;24.60;62.80;;;;;;5020910;28;20666;-58
2024/04/06 12:02:59;;;;;;;3.83;1.63;;;24.60;61.70;;;;;;5020694;28;20255;-58
2024/04/06 12:05:25;;;;;;;4.13;1.90;;;24.60;62.40;;;;;;5031118;28;20861;-58
2024/04/06 12:07:51;;;;;;;4.53;1.73;;;24.70;63.00;;;;;;5036164;28;20714;-57
2024/04/06 12:10:18;;;;;;;5.03;2.00;;;24.70;62.50;;;;;;5040661;28;20229;-57
2024/04/06 12:12:44;;;;;;;3.90;2.03;;;24.80;62.10;;;;;;5026700;28;20260;-58
2024/04/06 12:15:13;;;;;;;4.20;1.40;;;24.70;61.80;;;;;;5036484;28;20222;-58
2024/04/06 12:17:39;;;;;;;4.27;1.90;;;24.70;61.30;;;;;;5033254;28;20218;-58
2024/04/06 12:20:06;;;;;;;3.43;1.80;;;24.60;61.00;;;;;;5039000;28;20226;-58
2024/04/06 12:22:32;;;;;;;3.90;1.80;;;24.60;62.60;;;;;;5035222;28;20577;-58
2024/04/06 12:24:58;;;;;;;4.67;2.07;;;24.50;61.40;;;;;;5030251;28;20253;-58
2024/04/06 12:27:24;;;;;;;6.00;1.47;;;24.40;62.30;;;;;;5028526;28;20567;-58
2024/04/06 12:29:50;;;;;;;2.77;1.57;;;24.20;61.30;;;;;;5032139;28;20199;-58
2024/04/06 12:32:17;;;;;;;4.33;1.97;;;24.10;62.00;;;;;;5034340;28;20762;-58
2024/04/06 12:34:43;;;;;;;5.17;1.77;;;24.00;61.80;;;;;;5034769;28;20227;-58
2024/04/06 12:37:10;;;;;;;4.10;1.77;;;23.90;62.10;;;;;;5033922;28;20206;-58